GCC Virtual Airport Information Service

Sharjah International Airport

ICAO: OMSJ Country: AE
Latitude: 25.3286 Longitude: 55.5172
Latest Arrival : GCT18501 (OOMS-OMSJ) Latest Departure : GCT18501 (OMSJ-OEJN)


WX CaptureLIVE
Data provided by noaa.gov | Fetched at 13:55:45

METAR : OMSJ 051300Z 30011KT CAVOK 34/08 Q1012 TEMPO 32020G30KT 4000 BLDU

TAF : OMSJ 051100Z 0512/0618 29012KT CAVOK BECMG 0516/0518 20005KT PROB30 0523/0606 4000 HZ BKN008 BECMG 0605/0607 27014KT BECMG 0616/0618 21007KT


Runway Data for OMSJ
Data provided by openaviationdata.com

Runway ID Mag Var Hdg Length Elevation Surface ILS Freq ILS Id ILS Slope
12 1 120° 13328 ft 111 ft Asphalt -- -- --
30 1 300° 13328 ft 111 ft Asphalt 109.7 ISJ 3

Sharjah International Airport, AE
Use only for reference purposes



Not for navigational purposes.